createdAt,value
2023-03-14T00:00:38.589Z,9.72
2023-03-14T00:01:58.996Z,9.70
2023-03-14T00:03:30.767Z,9.68
2023-03-14T00:05:02.680Z,9.67
2023-03-14T00:06:47.432Z,9.66
2023-03-14T00:08:08.247Z,9.66
2023-03-14T00:09:30.036Z,9.66
2023-03-14T00:11:02.319Z,9.67
2023-03-14T00:12:32.500Z,9.67
2023-03-14T00:13:55.376Z,9.68
2023-03-14T00:15:15.713Z,9.69
2023-03-14T00:16:41.313Z,9.69
2023-03-14T00:18:15.923Z,9.70
2023-03-14T00:19:50.091Z,9.71
2023-03-14T00:21:25.504Z,9.73
2023-03-14T00:23:09.158Z,9.74
2023-03-14T00:24:32.212Z,9.76
2023-03-14T00:25:52.891Z,9.77
2023-03-14T00:27:36.588Z,9.78
2023-03-14T00:29:09.235Z,9.79
2023-03-14T00:30:29.281Z,9.78
2023-03-14T00:32:09.317Z,9.78
2023-03-14T00:33:40.875Z,9.77
2023-03-14T00:35:24.998Z,9.76
2023-03-14T00:36:58.957Z,9.75
2023-03-14T00:38:39.860Z,9.74
2023-03-14T00:40:23.980Z,9.73
2023-03-14T00:41:46.430Z,9.71
2023-03-14T00:43:29.869Z,9.69
2023-03-14T00:45:04.079Z,9.66
2023-03-14T00:46:36.333Z,9.65
2023-03-14T00:48:01.051Z,9.62
2023-03-14T00:49:35.304Z,9.61
2023-03-14T00:51:18.862Z,9.57
2023-03-14T00:52:50.910Z,9.55
2023-03-14T00:54:23.240Z,9.53
2023-03-14T00:55:55.470Z,9.52
2023-03-14T00:57:18.403Z,9.49
2023-03-14T00:59:10.311Z,9.47
2023-03-14T01:00:41.982Z,9.45
2023-03-14T01:02:25.806Z,9.44
2023-03-14T01:03:46.804Z,9.41
2023-03-14T01:05:10.562Z,9.40
2023-03-14T01:07:04.087Z,9.38
2023-03-14T01:08:26.139Z,9.36
2023-03-14T01:10:10.184Z,9.59
2023-03-14T01:11:44.290Z,10.86
2023-03-14T01:13:04.952Z,12.09
2023-03-14T01:14:37.019Z,12.73
2023-03-14T01:16:11.712Z,12.56
2023-03-14T01:17:32.413Z,12.14
2023-03-14T01:18:58.392Z,11.75
2023-03-14T01:20:37.753Z,11.37
2023-03-14T01:22:10.063Z,11.07
2023-03-14T01:23:57.354Z,10.79
2023-03-14T01:25:35.862Z,10.56
2023-03-14T01:26:56.667Z,10.37
2023-03-14T01:28:17.574Z,10.24
2023-03-14T01:29:41.039Z,10.11
2023-03-14T01:31:23.193Z,10.00
2023-03-14T01:32:57.370Z,9.85
2023-03-14T01:34:25.923Z,9.74
2023-03-14T01:35:58.194Z,9.64
2023-03-14T01:37:30.170Z,9.55
2023-03-14T01:38:53.174Z,9.48
2023-03-14T01:40:28.739Z,9.42
2023-03-14T01:42:01.412Z,9.35
2023-03-14T01:43:45.328Z,9.28
2023-03-14T01:45:17.833Z,9.39
2023-03-14T01:46:49.890Z,10.20
2023-03-14T01:48:29.749Z,11.75
2023-03-14T01:50:10.887Z,12.64
2023-03-14T01:51:54.070Z,12.47
2023-03-14T01:53:14.986Z,11.96
2023-03-14T01:54:49.345Z,11.52
2023-03-14T01:56:23.559Z,11.07
2023-03-14T01:58:11.106Z,10.74
2023-03-14T01:59:51.844Z,10.39
2023-03-14T02:01:24.085Z,10.15
2023-03-14T02:02:49.302Z,9.97
2023-03-14T02:04:14.645Z,9.80
2023-03-14T02:06:05.224Z,9.62
2023-03-14T02:07:53.763Z,9.44
2023-03-14T02:09:40.299Z,9.26
2023-03-14T02:11:13.863Z,9.16
2023-03-14T02:12:56.889Z,10.02
2023-03-14T02:14:49.043Z,11.44
2023-03-14T02:16:45.464Z,12.50
2023-03-14T02:18:38.938Z,12.17
2023-03-14T02:20:35.250Z,11.34
2023-03-14T02:22:03.203Z,10.84
2023-03-14T02:23:52.188Z,10.38
2023-03-14T02:25:37.019Z,9.97
2023-03-14T02:27:09.579Z,9.63
2023-03-14T02:28:55.929Z,9.36
2023-03-14T02:30:28.101Z,9.13
2023-03-14T02:31:57.261Z,9.45
2023-03-14T02:33:48.959Z,10.56
2023-03-14T02:35:11.867Z,11.86
2023-03-14T02:36:47.231Z,12.35
2023-03-14T02:38:31.346Z,11.94
2023-03-14T02:40:16.626Z,11.25
2023-03-14T02:41:49.328Z,10.66
2023-03-14T02:43:15.513Z,10.17
2023-03-14T02:44:59.380Z,9.80
2023-03-14T02:46:25.875Z,9.40
2023-03-14T02:47:57.786Z,9.11
2023-03-14T02:49:40.888Z,8.89
2023-03-14T02:51:13.097Z,9.57
2023-03-14T02:52:35.889Z,10.61
2023-03-14T02:54:10.714Z,11.78
2023-03-14T02:55:55.137Z,12.12
2023-03-14T02:57:27.137Z,11.58
2023-03-14T02:58:57.950Z,10.96
2023-03-14T03:00:58.236Z,10.29
2023-03-14T03:02:53.231Z,9.74
2023-03-14T03:04:14.229Z,9.33
2023-03-14T03:05:45.901Z,9.00
2023-03-14T03:07:29.761Z,8.71
2023-03-14T03:09:13.486Z,8.95
2023-03-14T03:10:57.084Z,10.19
2023-03-14T03:12:41.475Z,11.50
2023-03-14T03:14:27.338Z,11.83
2023-03-14T03:15:59.427Z,11.25
2023-03-14T03:17:31.649Z,10.61
2023-03-14T03:18:56.027Z,10.09
2023-03-14T03:20:18.979Z,9.64
2023-03-14T03:21:59.571Z,9.23
2023-03-14T03:23:43.612Z,8.85
2023-03-14T03:25:28.176Z,8.54
2023-03-14T03:27:11.985Z,8.58
2023-03-14T03:29:04.187Z,9.72
2023-03-14T03:30:43.932Z,11.19
2023-03-14T03:32:17.611Z,11.64
2023-03-14T03:34:01.551Z,11.19
2023-03-14T03:35:35.634Z,10.59
2023-03-14T03:37:16.053Z,9.97
2023-03-14T03:38:48.357Z,9.45
2023-03-14T03:40:31.975Z,9.10
2023-03-14T03:42:11.814Z,8.73
2023-03-14T03:44:03.581Z,8.46
2023-03-14T03:45:26.841Z,8.34
2023-03-14T03:47:22.078Z,9.16
2023-03-14T03:49:02.030Z,10.71
2023-03-14T03:50:45.795Z,11.58
2023-03-14T03:52:36.288Z,11.30
2023-03-14T03:54:20.842Z,10.60
2023-03-14T03:55:53.356Z,10.00
2023-03-14T03:57:16.458Z,9.61
2023-03-14T03:58:44.287Z,9.26
2023-03-14T04:00:07.805Z,8.95
2023-03-14T04:01:46.082Z,8.69
2023-03-14T04:03:09.682Z,8.45
2023-03-14T04:04:54.018Z,8.58
2023-03-14T04:06:36.872Z,9.64
2023-03-14T04:07:57.262Z,11.01
2023-03-14T04:09:25.004Z,11.71
2023-03-14T04:11:03.023Z,11.45
2023-03-14T04:13:01.872Z,10.81
2023-03-14T04:14:49.102Z,10.12
2023-03-14T04:16:37.381Z,9.59
2023-03-14T04:18:30.526Z,9.15
2023-03-14T04:20:03.284Z,8.83
2023-03-14T04:21:52.847Z,8.57
2023-03-14T04:23:33.876Z,8.59
2023-03-14T04:25:03.640Z,9.64
2023-03-14T04:26:34.359Z,10.89
2023-03-14T04:28:10.297Z,11.71
2023-03-14T04:29:49.723Z,11.52
2023-03-14T04:31:27.242Z,10.93
2023-03-14T04:33:19.594Z,10.28
2023-03-14T04:35:09.493Z,9.66
2023-03-14T04:36:42.606Z,9.27
2023-03-14T04:38:19.859Z,8.91
2023-03-14T04:39:48.175Z,8.63
2023-03-14T04:41:36.264Z,8.41
2023-03-14T04:43:16.341Z,9.14
2023-03-14T04:45:06.951Z,10.61
2023-03-14T04:46:59.489Z,11.69
2023-03-14T04:48:32.136Z,11.56
2023-03-14T04:50:16.395Z,10.85
2023-03-14T04:51:59.724Z,10.21
2023-03-14T04:53:44.870Z,9.58
2023-03-14T04:55:18.750Z,9.11
2023-03-14T04:57:02.418Z,8.77
2023-03-14T04:58:56.499Z,8.44
2023-03-14T05:00:28.798Z,8.95
2023-03-14T05:01:51.780Z,10.01
2023-03-14T05:03:51.086Z,11.28
2023-03-14T05:06:07.143Z,11.62
2023-03-14T05:07:48.561Z,10.93
2023-03-14T05:09:50.119Z,10.20
2023-03-14T05:12:14.809Z,9.42
2023-03-14T05:14:20.009Z,8.85
2023-03-14T05:15:55.583Z,8.57
2023-03-14T05:18:05.357Z,8.48
2023-03-14T05:20:00.972Z,9.78
2023-03-14T05:21:41.914Z,11.14
2023-03-14T05:23:38.806Z,11.77
2023-03-14T05:25:36.485Z,11.15
2023-03-14T05:27:57.885Z,10.27
2023-03-14T05:30:14.352Z,9.55
2023-03-14T05:32:30.753Z,8.97
2023-03-14T05:34:15.278Z,8.63
2023-03-14T05:35:56.081Z,8.65
2023-03-14T05:38:28.313Z,10.33
2023-03-14T05:40:15.976Z,11.70
2023-03-14T05:41:56.813Z,11.72
2023-03-14T05:43:47.491Z,11.06
2023-03-14T05:45:36.007Z,10.37
2023-03-14T05:47:21.997Z,9.77
2023-03-14T05:49:19.634Z,9.35
2023-03-14T05:51:33.177Z,8.87
2023-03-14T05:53:30.717Z,8.61
2023-03-14T05:55:13.475Z,9.49
2023-03-14T05:57:01.886Z,10.74
2023-03-14T05:59:13.059Z,11.97
2023-03-14T06:01:11.694Z,11.56
2023-03-14T06:03:09.965Z,10.85
2023-03-14T06:05:01.956Z,10.32
2023-03-14T06:06:54.073Z,9.88
2023-03-14T06:08:45.130Z,9.54
2023-03-14T06:10:29.639Z,9.28
2023-03-14T06:12:04.699Z,9.09
2023-03-14T06:13:39.603Z,8.99
2023-03-14T06:15:21.019Z,9.64
2023-03-14T06:17:06.775Z,11.13
2023-03-14T06:18:55.742Z,12.33
2023-03-14T06:20:39.611Z,12.24
2023-03-14T06:22:24.988Z,11.67
2023-03-14T06:24:16.671Z,11.11
2023-03-14T06:25:51.365Z,10.62
2023-03-14T06:27:35.338Z,10.32
2023-03-14T06:29:19.404Z,10.05
2023-03-14T06:31:11.556Z,9.84
2023-03-14T06:32:50.864Z,9.66
2023-03-14T06:34:44.004Z,9.53
2023-03-14T06:36:28.031Z,9.42
2023-03-14T06:38:12.318Z,9.46
2023-03-14T06:39:57.042Z,10.41
2023-03-14T06:41:49.119Z,12.18
2023-03-14T06:43:11.689Z,12.87
2023-03-14T06:45:06.072Z,12.63
2023-03-14T06:46:45.630Z,12.08
2023-03-14T06:48:26.125Z,11.66
2023-03-14T06:50:10.569Z,11.29
2023-03-14T06:51:51.838Z,11.01
2023-03-14T06:53:36.052Z,10.79
2023-03-14T06:55:22.573Z,10.63
2023-03-14T06:57:14.974Z,10.51
2023-03-14T06:58:57.827Z,10.44
2023-03-14T07:00:30.646Z,10.40
2023-03-14T07:02:14.388Z,10.38
2023-03-14T07:03:58.123Z,10.37
2023-03-14T07:05:41.763Z,10.36
2023-03-14T07:07:26.376Z,10.36
2023-03-14T07:09:19.972Z,10.37
2023-03-14T07:11:18.626Z,10.39
2023-03-14T07:13:08.258Z,10.41
2023-03-14T07:14:44.489Z,10.43
2023-03-14T07:16:28.838Z,10.46
2023-03-14T07:18:03.766Z,10.48
2023-03-14T07:19:51.329Z,10.52
2023-03-14T07:21:35.772Z,10.56
2023-03-14T07:23:04.903Z,10.60
2023-03-14T07:24:41.859Z,10.63
2023-03-14T07:26:25.857Z,10.67
2023-03-14T07:27:57.876Z,10.71
2023-03-14T07:29:28.641Z,10.74
2023-03-14T07:31:12.964Z,10.78
2023-03-14T07:32:56.333Z,10.81
2023-03-14T07:34:41.766Z,10.84
2023-03-14T07:36:21.456Z,10.88
2023-03-14T07:38:05.630Z,10.90
2023-03-14T07:39:42.538Z,10.94
2023-03-14T07:41:23.634Z,10.98
2023-03-14T07:43:15.817Z,11.01
2023-03-14T07:45:05.303Z,11.07
2023-03-14T07:46:45.230Z,11.12
2023-03-14T07:48:29.545Z,11.20
2023-03-14T07:50:13.312Z,11.29
2023-03-14T07:52:00.642Z,11.37
2023-03-14T07:53:44.664Z,11.48
2023-03-14T07:55:17.286Z,11.58
2023-03-14T07:56:49.408Z,11.66
2023-03-14T07:58:35.581Z,11.73
2023-03-14T08:00:08.300Z,11.77
2023-03-14T08:01:33.126Z,11.80
2023-03-14T08:03:17.475Z,11.80
2023-03-14T08:05:10.861Z,11.81
2023-03-14T08:07:02.729Z,11.80
2023-03-14T08:08:38.717Z,11.80
2023-03-14T08:10:22.971Z,11.80
2023-03-14T08:12:10.794Z,11.80
2023-03-14T08:13:54.933Z,11.79
2023-03-14T08:15:39.770Z,11.77
2023-03-14T08:17:12.343Z,11.75
2023-03-14T08:19:04.757Z,11.72
2023-03-14T08:20:39.629Z,11.70
2023-03-14T08:22:13.987Z,11.69
2023-03-14T08:24:06.008Z,11.68
2023-03-14T08:25:38.290Z,11.66
2023-03-14T08:27:23.661Z,11.67
2023-03-14T08:28:55.601Z,11.66
2023-03-14T08:30:47.521Z,11.66
2023-03-14T08:32:22.739Z,11.66
2023-03-14T08:34:06.894Z,11.65
2023-03-14T08:35:50.082Z,11.64
2023-03-14T08:37:26.937Z,11.62
2023-03-14T08:38:56.997Z,11.62
2023-03-14T08:40:29.271Z,11.62
2023-03-14T08:42:21.382Z,11.61
2023-03-14T08:44:01.593Z,11.61
2023-03-14T08:45:41.325Z,11.62
2023-03-14T08:47:25.433Z,11.63
2023-03-14T08:48:57.056Z,11.65
2023-03-14T08:50:40.849Z,11.68
2023-03-14T08:52:25.399Z,11.72
2023-03-14T08:53:59.837Z,11.77
2023-03-14T08:55:43.347Z,11.81
2023-03-14T08:57:27.674Z,11.85
2023-03-14T08:59:11.250Z,11.89
2023-03-14T09:00:32.378Z,11.94
2023-03-14T09:02:16.226Z,11.98
2023-03-14T09:03:48.650Z,12.01
2023-03-14T09:05:20.619Z,12.04
2023-03-14T09:06:52.823Z,12.06
2023-03-14T09:08:39.240Z,12.07
2023-03-14T09:10:26.096Z,12.07
2023-03-14T09:12:17.773Z,12.06
2023-03-14T09:14:01.848Z,12.07
2023-03-14T09:15:22.756Z,12.07
2023-03-14T09:17:16.104Z,12.07
2023-03-14T09:19:03.021Z,12.09
2023-03-14T09:20:42.975Z,12.11
2023-03-14T09:22:15.976Z,12.13
2023-03-14T09:23:58.379Z,12.15
2023-03-14T09:25:50.406Z,12.19
2023-03-14T09:27:42.246Z,12.23
2023-03-14T09:29:26.166Z,12.28
2023-03-14T09:30:58.235Z,12.33
2023-03-14T09:32:48.684Z,12.38
2023-03-14T09:34:23.578Z,12.44
2023-03-14T09:36:08.020Z,12.52
2023-03-14T09:37:40.131Z,12.60
2023-03-14T09:39:09.853Z,12.69
2023-03-14T09:40:42.013Z,12.76
2023-03-14T09:42:25.596Z,12.85
2023-03-14T09:44:11.780Z,12.95
2023-03-14T09:46:03.913Z,13.05
2023-03-14T09:47:59.478Z,13.15
2023-03-14T09:49:32.523Z,13.21
2023-03-14T09:51:00.223Z,13.25
2023-03-14T09:52:35.686Z,13.29
2023-03-14T09:54:10.485Z,13.34
2023-03-14T09:55:42.365Z,13.40
2023-03-14T09:57:26.450Z,13.44
2023-03-14T09:58:54.743Z,13.49
2023-03-14T10:00:27.420Z,13.53
2023-03-14T10:02:20.969Z,13.58
2023-03-14T10:03:52.849Z,13.62
2023-03-14T10:05:37.785Z,13.65
2023-03-14T10:07:21.472Z,13.66
2023-03-14T10:08:53.422Z,13.63
2023-03-14T10:10:37.325Z,13.58
2023-03-14T10:12:17.717Z,13.54
2023-03-14T10:14:02.123Z,13.49
2023-03-14T10:15:34.450Z,13.45
2023-03-14T10:17:02.440Z,13.42
2023-03-14T10:18:34.574Z,13.39
2023-03-14T10:20:10.513Z,13.36
2023-03-14T10:21:33.522Z,13.32
2023-03-14T10:23:17.396Z,13.31
2023-03-14T10:24:49.890Z,13.28
2023-03-14T10:26:33.474Z,13.26
2023-03-14T10:28:17.458Z,13.24
2023-03-14T10:29:53.599Z,13.21
2023-03-14T10:31:37.381Z,13.19
2023-03-14T10:33:17.362Z,13.16
2023-03-14T10:34:49.538Z,13.13
2023-03-14T10:36:29.563Z,13.10
2023-03-14T10:37:57.690Z,13.08
2023-03-14T10:39:37.973Z,13.06
2023-03-14T10:41:18.103Z,13.05
2023-03-14T10:42:50.641Z,13.03
2023-03-14T10:44:30.349Z,13.00
2023-03-14T10:46:02.967Z,12.95
2023-03-14T10:47:25.903Z,12.91
2023-03-14T10:48:57.909Z,12.89
2023-03-14T10:50:37.565Z,12.86
2023-03-14T10:52:02.861Z,12.83
2023-03-14T10:53:47.705Z,12.79
2023-03-14T10:55:23.019Z,12.75
2023-03-14T10:56:59.158Z,12.70
2023-03-14T10:58:33.131Z,12.66
2023-03-14T11:00:04.280Z,12.62
2023-03-14T11:01:38.057Z,12.59
2023-03-14T11:03:00.967Z,12.57
2023-03-14T11:04:36.027Z,12.53
2023-03-14T11:06:08.401Z,12.48
2023-03-14T11:07:40.369Z,12.42
2023-03-14T11:09:12.998Z,12.36
2023-03-14T11:10:33.870Z,12.31
2023-03-14T11:12:17.581Z,12.27
2023-03-14T11:14:01.214Z,12.22
2023-03-14T11:15:21.982Z,12.17
2023-03-14T11:17:06.154Z,12.12
2023-03-14T11:18:34.334Z,12.08
2023-03-14T11:20:09.171Z,12.03
2023-03-14T11:21:39.170Z,12.00
2023-03-14T11:23:15.502Z,11.95
2023-03-14T11:24:38.586Z,11.90
2023-03-14T11:25:58.776Z,11.85
2023-03-14T11:27:51.979Z,11.78
2023-03-14T11:29:24.302Z,11.68
2023-03-14T11:30:44.986Z,11.62
2023-03-14T11:32:08.113Z,11.54
2023-03-14T11:33:51.978Z,11.47
2023-03-14T11:35:22.890Z,11.39
2023-03-14T11:37:03.988Z,11.33
2023-03-14T11:38:47.977Z,11.26
2023-03-14T11:40:20.206Z,11.49
2023-03-14T11:42:05.468Z,12.59
2023-03-14T11:43:40.282Z,13.93
2023-03-14T11:45:02.838Z,14.64
2023-03-14T11:46:34.978Z,14.42
2023-03-14T11:48:02.757Z,13.98
2023-03-14T11:49:55.827Z,13.44
2023-03-14T11:51:28.514Z,12.93
2023-03-14T11:53:12.976Z,12.62
2023-03-14T11:54:33.150Z,12.30
2023-03-14T11:55:55.984Z,12.05
2023-03-14T11:57:28.380Z,12.01
2023-03-14T11:58:48.295Z,12.80
2023-03-14T12:00:12.762Z,13.81
2023-03-14T12:01:33.512Z,14.83
2023-03-14T12:03:01.744Z,15.29
2023-03-14T12:04:48.008Z,14.93
2023-03-14T12:06:14.587Z,14.27
2023-03-14T12:07:37.269Z,13.73
2023-03-14T12:09:03.506Z,13.27
2023-03-14T12:10:35.393Z,12.78
2023-03-14T12:12:07.667Z,12.72
2023-03-14T12:13:47.194Z,13.49
2023-03-14T12:15:17.911Z,14.56
2023-03-14T12:17:03.800Z,15.51
2023-03-14T12:18:24.855Z,15.57
2023-03-14T12:19:56.801Z,15.07
2023-03-14T12:21:27.272Z,14.37
2023-03-14T12:23:00.930Z,13.69
2023-03-14T12:24:23.920Z,13.22
2023-03-14T12:25:44.265Z,13.03
2023-03-14T12:27:04.690Z,13.60
2023-03-14T12:28:25.401Z,14.46
2023-03-14T12:29:55.071Z,15.33
2023-03-14T12:31:49.019Z,15.91
2023-03-14T12:33:23.101Z,15.42
2023-03-14T12:35:06.699Z,14.64
2023-03-14T12:36:38.998Z,13.91
2023-03-14T12:38:20.970Z,13.30
2023-03-14T12:39:42.952Z,13.47
2023-03-14T12:41:15.850Z,14.38
2023-03-14T12:43:09.049Z,15.29
2023-03-14T12:45:00.882Z,16.19
2023-03-14T12:46:44.847Z,16.44
2023-03-14T12:48:17.290Z,15.84
2023-03-14T12:50:04.905Z,14.93
2023-03-14T12:51:39.722Z,14.14
2023-03-14T12:53:11.920Z,13.91
2023-03-14T12:54:43.663Z,14.63
2023-03-14T12:56:27.454Z,15.52
2023-03-14T12:57:57.216Z,16.33
2023-03-14T12:59:20.522Z,16.69
2023-03-14T13:01:07.232Z,16.24
2023-03-14T13:02:48.635Z,15.34
2023-03-14T13:04:38.923Z,14.46
2023-03-14T13:06:23.367Z,13.83
2023-03-14T13:08:02.895Z,14.38
2023-03-14T13:09:23.297Z,15.17
2023-03-14T13:11:03.153Z,15.95
2023-03-14T13:12:42.803Z,16.58
2023-03-14T13:14:26.397Z,16.47
2023-03-14T13:16:02.785Z,15.71
2023-03-14T13:17:46.933Z,14.79
2023-03-14T13:19:30.798Z,14.07
2023-03-14T13:21:10.990Z,14.30
2023-03-14T13:22:50.231Z,15.29
2023-03-14T13:24:43.968Z,16.14
2023-03-14T13:26:19.260Z,16.68
2023-03-14T13:28:02.758Z,16.18
2023-03-14T13:29:43.371Z,15.29
2023-03-14T13:31:06.357Z,14.40
2023-03-14T13:32:47.646Z,13.84
2023-03-14T13:34:27.247Z,14.32
2023-03-14T13:35:47.548Z,15.11
2023-03-14T13:37:19.647Z,15.85
2023-03-14T13:38:51.347Z,16.45
2023-03-14T13:40:23.970Z,16.51
2023-03-14T13:41:57.956Z,15.85
2023-03-14T13:43:31.447Z,14.98
2023-03-14T13:45:11.131Z,14.18
2023-03-14T13:46:45.226Z,13.84
2023-03-14T13:48:21.153Z,14.45
2023-03-14T13:50:01.579Z,15.27
2023-03-14T13:51:34.128Z,16.13
2023-03-14T13:53:18.044Z,16.57
2023-03-14T13:55:01.442Z,16.11
2023-03-14T13:56:33.449Z,15.15
2023-03-14T13:58:17.096Z,14.32
2023-03-14T13:59:37.702Z,13.73
2023-03-14T14:01:21.185Z,14.09
2023-03-14T14:02:41.826Z,14.92
2023-03-14T14:04:13.916Z,15.62
2023-03-14T14:05:57.808Z,16.32
2023-03-14T14:07:37.349Z,16.40
2023-03-14T14:09:21.117Z,15.65
2023-03-14T14:11:04.575Z,14.72
2023-03-14T14:12:29.783Z,13.97
2023-03-14T14:14:13.970Z,13.82
2023-03-14T14:15:57.503Z,14.71
2023-03-14T14:17:30.224Z,15.65
2023-03-14T14:19:02.196Z,16.25
2023-03-14T14:20:34.253Z,16.67
2023-03-14T14:22:26.728Z,16.16
2023-03-14T14:24:10.783Z,15.14
2023-03-14T14:25:42.961Z,14.24
2023-03-14T14:27:18.198Z,13.70
2023-03-14T14:28:53.065Z,14.10
2023-03-14T14:30:27.257Z,15.01
2023-03-14T14:32:01.859Z,15.85
2023-03-14T14:33:36.981Z,16.48
2023-03-14T14:35:00.031Z,16.38
2023-03-14T14:36:20.530Z,15.77
2023-03-14T14:37:52.186Z,14.98
2023-03-14T14:39:26.490Z,14.25
2023-03-14T14:41:06.418Z,13.70
2023-03-14T14:42:50.416Z,13.96
2023-03-14T14:44:24.570Z,14.83
2023-03-14T14:46:08.249Z,15.76
2023-03-14T14:47:28.690Z,16.24
2023-03-14T14:49:01.025Z,15.86
2023-03-14T14:50:23.747Z,15.19
2023-03-14T14:51:57.891Z,14.43
2023-03-14T14:53:20.831Z,13.80
2023-03-14T14:54:50.863Z,13.32
2023-03-14T14:56:13.535Z,13.60
2023-03-14T14:57:41.534Z,14.36
2023-03-14T14:59:21.707Z,15.25
2023-03-14T15:00:51.514Z,16.07
2023-03-14T15:02:23.568Z,15.90
2023-03-14T15:03:46.102Z,15.27
2023-03-14T15:05:06.874Z,14.61
2023-03-14T15:06:38.584Z,14.01
2023-03-14T15:07:59.166Z,13.43
2023-03-14T15:09:20.146Z,13.21
2023-03-14T15:10:55.347Z,13.76
2023-03-14T15:12:27.491Z,14.85
2023-03-14T15:14:00.762Z,15.73
2023-03-14T15:15:44.669Z,16.05
2023-03-14T15:17:05.230Z,15.56
2023-03-14T15:18:49.018Z,14.84
2023-03-14T15:20:32.685Z,14.07
2023-03-14T15:22:12.163Z,13.46
2023-03-14T15:23:43.846Z,13.25
2023-03-14T15:25:51.356Z,14.00
2023-03-14T15:27:07.976Z,15.19
2023-03-14T15:28:47.390Z,15.93
2023-03-14T15:30:19.849Z,15.86
2023-03-14T15:32:03.881Z,15.15
2023-03-14T15:33:35.686Z,14.37
2023-03-14T15:35:07.642Z,13.83
2023-03-14T15:36:32.681Z,13.32
2023-03-14T15:38:00.670Z,13.18
2023-03-14T15:39:35.738Z,13.86
2023-03-14T15:40:58.397Z,14.90
2023-03-14T15:42:43.189Z,15.82
2023-03-14T15:44:22.672Z,15.94
2023-03-14T15:46:06.669Z,15.27
2023-03-14T15:47:34.832Z,14.53
2023-03-14T15:49:09.093Z,13.88
2023-03-14T15:50:36.998Z,13.35
2023-03-14T15:52:00.410Z,12.99
2023-03-14T15:53:23.015Z,13.38
2023-03-14T15:54:57.986Z,14.40
2023-03-14T15:56:28.166Z,15.31
2023-03-14T15:58:01.210Z,15.93
2023-03-14T15:59:44.472Z,15.60
2023-03-14T16:01:36.698Z,14.80
2023-03-14T16:03:23.659Z,13.95
2023-03-14T16:05:02.779Z,13.28
2023-03-14T16:06:23.270Z,12.94
2023-03-14T16:08:06.839Z,13.43
2023-03-14T16:09:39.471Z,14.58
2023-03-14T16:11:23.467Z,15.51
2023-03-14T16:12:49.282Z,15.91
2023-03-14T16:14:24.211Z,15.41
2023-03-14T16:16:08.000Z,14.67
2023-03-14T16:17:40.230Z,13.91
2023-03-14T16:19:12.633Z,13.36
2023-03-14T16:20:48.111Z,12.94
2023-03-14T16:22:32.950Z,13.55
2023-03-14T16:24:13.976Z,14.63
2023-03-14T16:26:06.973Z,15.58
2023-03-14T16:27:41.889Z,15.65
2023-03-14T16:29:16.472Z,14.99
2023-03-14T16:30:47.072Z,14.28
2023-03-14T16:32:33.771Z,13.60
2023-03-14T16:34:02.790Z,13.05
2023-03-14T16:35:46.118Z,13.14
2023-03-14T16:37:29.603Z,14.15
2023-03-14T16:38:52.593Z,15.11
2023-03-14T16:40:36.156Z,15.73
2023-03-14T16:42:10.189Z,15.46
2023-03-14T16:43:56.033Z,14.65
2023-03-14T16:45:27.908Z,13.89
2023-03-14T16:46:51.198Z,13.24
2023-03-14T16:48:30.976Z,12.82
2023-03-14T16:50:03.600Z,13.28
2023-03-14T16:51:47.807Z,14.35
2023-03-14T16:53:32.241Z,15.33
2023-03-14T16:55:06.958Z,15.62
2023-03-14T16:56:51.284Z,15.01
2023-03-14T16:58:23.525Z,14.12
2023-03-14T17:00:03.093Z,13.42
2023-03-14T17:01:46.703Z,12.81
2023-03-14T17:03:31.019Z,12.99
2023-03-14T17:05:01.383Z,13.91
2023-03-14T17:06:44.144Z,14.81
2023-03-14T17:08:16.659Z,15.54
2023-03-14T17:09:50.938Z,15.28
2023-03-14T17:11:34.994Z,14.51
2023-03-14T17:13:09.711Z,13.64
2023-03-14T17:14:41.865Z,12.96
2023-03-14T17:16:26.563Z,12.65
2023-03-14T17:18:10.857Z,13.36
2023-03-14T17:19:50.979Z,14.43
2023-03-14T17:21:18.634Z,15.23
2023-03-14T17:22:53.226Z,15.45
2023-03-14T17:24:37.270Z,14.86
2023-03-14T17:26:12.326Z,13.94
2023-03-14T17:28:05.980Z,13.16
2023-03-14T17:29:59.002Z,12.61
2023-03-14T17:31:31.455Z,13.27
2023-03-14T17:33:15.357Z,14.34
2023-03-14T17:34:51.089Z,15.16
2023-03-14T17:36:38.073Z,15.33
2023-03-14T17:38:22.024Z,14.53
2023-03-14T17:40:06.373Z,13.63
2023-03-14T17:41:39.105Z,12.84
2023-03-14T17:43:18.700Z,12.46
2023-03-14T17:45:02.192Z,13.00
2023-03-14T17:46:30.798Z,14.03
2023-03-14T17:48:03.158Z,14.84
2023-03-14T17:49:55.970Z,15.38
2023-03-14T17:51:49.991Z,14.78
2023-03-14T17:53:30.197Z,13.77
2023-03-14T17:55:04.748Z,12.99
2023-03-14T17:56:58.301Z,12.44
2023-03-14T17:58:42.771Z,13.00
2023-03-14T18:00:22.790Z,14.06
2023-03-14T18:02:02.528Z,14.94
2023-03-14T18:03:45.045Z,15.36
2023-03-14T18:05:29.679Z,14.75
2023-03-14T18:07:13.616Z,13.85
2023-03-14T18:08:46.805Z,13.04
2023-03-14T18:10:20.810Z,12.51
2023-03-14T18:11:44.416Z,12.59
2023-03-14T18:13:29.157Z,13.47
2023-03-14T18:15:10.197Z,14.51
2023-03-14T18:17:02.520Z,15.25
2023-03-14T18:18:30.976Z,14.97
2023-03-14T18:20:17.001Z,14.12
2023-03-14T18:21:39.556Z,13.31
2023-03-14T18:23:01.200Z,12.70
2023-03-14T18:24:35.724Z,12.38
2023-03-14T18:26:15.701Z,13.01
2023-03-14T18:27:47.936Z,13.89
2023-03-14T18:29:20.933Z,14.81
2023-03-14T18:30:55.223Z,15.21
2023-03-14T18:32:18.332Z,14.80
2023-03-14T18:33:52.795Z,14.08
2023-03-14T18:35:25.196Z,13.19
2023-03-14T18:36:56.022Z,12.55
2023-03-14T18:38:16.745Z,12.45
2023-03-14T18:39:37.549Z,13.06
2023-03-14T18:41:09.440Z,13.99
2023-03-14T18:42:44.011Z,14.71
2023-03-14T18:44:28.134Z,15.22
2023-03-14T18:46:12.214Z,14.66
2023-03-14T18:47:56.593Z,13.72
2023-03-14T18:49:32.896Z,12.84
2023-03-14T18:51:17.327Z,12.32
2023-03-14T18:53:01.997Z,12.87
2023-03-14T18:54:55.052Z,13.87
2023-03-14T18:56:38.861Z,14.80
2023-03-14T18:58:23.027Z,15.19
2023-03-14T18:59:55.657Z,14.64
2023-03-14T19:01:26.317Z,13.72
2023-03-14T19:03:05.906Z,12.92
2023-03-14T19:04:54.563Z,12.36
2023-03-14T19:06:19.345Z,12.86
2023-03-14T19:07:39.855Z,13.65
2023-03-14T19:09:23.484Z,14.47
2023-03-14T19:11:03.090Z,15.17
2023-03-14T19:12:38.582Z,15.04
2023-03-14T19:14:23.254Z,14.20
2023-03-14T19:15:57.533Z,13.23
2023-03-14T19:17:29.858Z,12.49
2023-03-14T19:19:13.677Z,12.50
2023-03-14T19:20:57.509Z,13.37
2023-03-14T19:22:21.163Z,14.25
2023-03-14T19:23:53.182Z,14.91
2023-03-14T19:25:27.209Z,15.26
2023-03-14T19:27:12.288Z,14.74
2023-03-14T19:28:37.427Z,13.87
2023-03-14T19:30:20.967Z,13.04
2023-03-14T19:32:03.045Z,12.47
2023-03-14T19:33:47.314Z,13.02
2023-03-14T19:36:18.337Z,14.01
2023-03-14T19:37:14.570Z,14.94
2023-03-14T19:38:58.052Z,15.30
2023-03-14T19:40:33.032Z,14.70
2023-03-14T19:42:04.950Z,13.81
2023-03-14T19:43:46.018Z,13.11
2023-03-14T19:45:18.305Z,12.45
2023-03-14T19:46:50.537Z,12.92
2023-03-14T19:48:24.969Z,13.69
2023-03-14T19:50:17.645Z,14.60
2023-03-14T19:51:47.622Z,15.26
2023-03-14T19:53:10.609Z,15.05
2023-03-14T19:54:55.622Z,14.29
2023-03-14T19:56:18.111Z,13.47
2023-03-14T19:57:51.362Z,12.74
2023-03-14T19:59:35.882Z,12.64
2023-03-14T20:01:15.063Z,13.46
2023-03-14T20:02:59.238Z,14.43
2023-03-14T20:04:45.173Z,15.20
2023-03-14T20:06:05.612Z,15.17
2023-03-14T20:07:49.364Z,14.47
2023-03-14T20:09:41.659Z,13.55
2023-03-14T20:11:13.764Z,12.76
2023-03-14T20:12:58.398Z,12.55
2023-03-14T20:14:51.429Z,13.43
2023-03-14T20:16:34.961Z,14.51
2023-03-14T20:18:19.219Z,15.27
2023-03-14T20:20:08.355Z,15.07
2023-03-14T20:21:41.096Z,14.26
2023-03-14T20:23:25.864Z,13.37
2023-03-14T20:24:59.081Z,12.69
2023-03-14T20:26:34.252Z,12.59
2023-03-14T20:28:23.015Z,13.42
2023-03-14T20:30:06.854Z,14.54
2023-03-14T20:31:41.575Z,15.26
2023-03-14T20:33:25.783Z,15.16
2023-03-14T20:35:09.581Z,14.34
2023-03-14T20:36:42.390Z,13.44
2023-03-14T20:38:10.016Z,12.84
2023-03-14T20:39:44.445Z,12.49
2023-03-14T20:41:07.219Z,13.06
2023-03-14T20:42:35.193Z,13.97
2023-03-14T20:45:58.146Z,15.30
2023-03-14T20:47:30.706Z,14.77
2023-03-14T20:49:03.121Z,14.05
2023-03-14T20:50:42.684Z,13.19
2023-03-14T20:52:14.804Z,12.52
2023-03-14T20:53:42.128Z,12.53
2023-03-14T20:55:03.547Z,13.23
2023-03-14T20:56:27.053Z,14.05
2023-03-14T20:58:11.837Z,14.87
2023-03-14T20:59:32.343Z,15.22
2023-03-14T21:01:16.197Z,14.73
2023-03-14T21:02:45.953Z,13.85
2023-03-14T21:04:08.874Z,13.20
2023-03-14T21:05:37.190Z,12.62
2023-03-14T21:06:57.807Z,12.45
2023-03-14T21:08:49.775Z,13.17
2023-03-14T21:10:22.062Z,14.21
2023-03-14T21:12:03.781Z,15.07